sensor_id;sensor_type;location;lat;lon;timestamp;temperature;humidity
5461;DHT22;2753;49.196;8.286;2024-03-08T00:01:44;7.10;96.40
5461;DHT22;2753;49.196;8.286;2024-03-08T00:04:10;7.10;96.50
5461;DHT22;2753;49.196;8.286;2024-03-08T00:06:36;7.00;96.50
5461;DHT22;2753;49.196;8.286;2024-03-08T00:09:01;7.00;96.50
5461;DHT22;2753;49.196;8.286;2024-03-08T00:11:27;7.00;96.50
5461;DHT22;2753;49.196;8.286;2024-03-08T00:13:53;6.90;96.40
5461;DHT22;2753;49.196;8.286;2024-03-08T00:16:19;6.90;96.50
5461;DHT22;2753;49.196;8.286;2024-03-08T00:18:45;6.90;96.50
5461;DHT22;2753;49.196;8.286;2024-03-08T00:21:11;6.90;96.40
5461;DHT22;2753;49.196;8.286;2024-03-08T00:23:37;6.80;96.40
5461;DHT22;2753;49.196;8.286;2024-03-08T00:26:03;6.80;96.40
5461;DHT22;2753;49.196;8.286;2024-03-08T00:28:29;6.80;96.40
5461;DHT22;2753;49.196;8.286;2024-03-08T00:30:56;6.80;96.40
5461;DHT22;2753;49.196;8.286;2024-03-08T00:33:21;6.80;96.30
5461;DHT22;2753;49.196;8.286;2024-03-08T00:35:47;6.70;96.30
5461;DHT22;2753;49.196;8.286;2024-03-08T00:38:13;6.70;96.30
5461;DHT22;2753;49.196;8.286;2024-03-08T00:40:39;6.70;96.30
5461;DHT22;2753;49.196;8.286;2024-03-08T00:43:06;6.70;96.40
5461;DHT22;2753;49.196;8.286;2024-03-08T00:45:32;6.70;96.40
5461;DHT22;2753;49.196;8.286;2024-03-08T00:47:57;6.70;96.40
5461;DHT22;2753;49.196;8.286;2024-03-08T00:50:23;6.60;96.40
5461;DHT22;2753;49.196;8.286;2024-03-08T00:52:49;6.60;96.40
5461;DHT22;2753;49.196;8.286;2024-03-08T00:55:15;6.50;96.40
5461;DHT22;2753;49.196;8.286;2024-03-08T00:57:41;6.50;96.50
5461;DHT22;2753;49.196;8.286;2024-03-08T01:00:10;6.40;96.40
5461;DHT22;2753;49.196;8.286;2024-03-08T01:02:38;6.40;96.80
5461;DHT22;2753;49.196;8.286;2024-03-08T01:05:04;6.40;96.40
5461;DHT22;2753;49.196;8.286;2024-03-08T01:07:33;6.40;96.40
5461;DHT22;2753;49.196;8.286;2024-03-08T01:09:59;6.40;96.50
5461;DHT22;2753;49.196;8.286;2024-03-08T01:12:29;6.30;96.50
5461;DHT22;2753;49.196;8.286;2024-03-08T01:14:56;6.30;96.50
5461;DHT22;2753;49.196;8.286;2024-03-08T01:17:22;6.30;96.50
5461;DHT22;2753;49.196;8.286;2024-03-08T01:19:47;6.30;96.50
5461;DHT22;2753;49.196;8.286;2024-03-08T01:22:13;6.30;96.50
5461;DHT22;2753;49.196;8.286;2024-03-08T01:24:39;6.30;96.50
5461;DHT22;2753;49.196;8.286;2024-03-08T01:27:05;6.30;96.60
5461;DHT22;2753;49.196;8.286;2024-03-08T01:29:31;6.20;96.50
5461;DHT22;2753;49.196;8.286;2024-03-08T01:31:56;6.20;96.60
5461;DHT22;2753;49.196;8.286;2024-03-08T01:34:22;6.10;96.70
5461;DHT22;2753;49.196;8.286;2024-03-08T01:36:48;6.10;96.70
5461;DHT22;2753;49.196;8.286;2024-03-08T01:39:14;6.10;96.60
5461;DHT22;2753;49.196;8.286;2024-03-08T01:41:40;6.10;96.70
5461;DHT22;2753;49.196;8.286;2024-03-08T01:44:06;6.10;96.70
5461;DHT22;2753;49.196;8.286;2024-03-08T01:46:33;6.10;96.70
5461;DHT22;2753;49.196;8.286;2024-03-08T01:49:00;6.10;96.70
5461;DHT22;2753;49.196;8.286;2024-03-08T01:51:27;6.00;96.70
5461;DHT22;2753;49.196;8.286;2024-03-08T01:53:55;6.00;96.70
5461;DHT22;2753;49.196;8.286;2024-03-08T01:56:23;6.00;96.80
5461;DHT22;2753;49.196;8.286;2024-03-08T01:58:49;5.90;96.80
5461;DHT22;2753;49.196;8.286;2024-03-08T02:01:15;5.90;96.80
5461;DHT22;2753;49.196;8.286;2024-03-08T02:03:41;5.90;96.80
5461;DHT22;2753;49.196;8.286;2024-03-08T02:06:11;5.90;96.80
5461;DHT22;2753;49.196;8.286;2024-03-08T02:08:36;5.90;96.90
5461;DHT22;2753;49.196;8.286;2024-03-08T02:11:03;5.80;96.80
5461;DHT22;2753;49.196;8.286;2024-03-08T02:13:29;5.80;96.70
5461;DHT22;2753;49.196;8.286;2024-03-08T02:15:59;5.70;96.70
5461;DHT22;2753;49.196;8.286;2024-03-08T02:18:25;5.70;96.80
5461;DHT22;2753;49.196;8.286;2024-03-08T02:20:59;5.70;96.80
5461;DHT22;2753;49.196;8.286;2024-03-08T02:23:25;5.70;96.80
5461;DHT22;2753;49.196;8.286;2024-03-08T02:25:52;5.70;96.70
5461;DHT22;2753;49.196;8.286;2024-03-08T02:28:19;5.70;96.70
5461;DHT22;2753;49.196;8.286;2024-03-08T02:30:45;5.60;96.70
5461;DHT22;2753;49.196;8.286;2024-03-08T02:33:18;5.60;96.70
5461;DHT22;2753;49.196;8.286;2024-03-08T02:35:50;5.60;96.70
5461;DHT22;2753;49.196;8.286;2024-03-08T02:38:20;5.50;96.70
5461;DHT22;2753;49.196;8.286;2024-03-08T02:40:48;5.50;96.70
5461;DHT22;2753;49.196;8.286;2024-03-08T02:46:36;5.50;96.70
5461;DHT22;2753;49.196;8.286;2024-03-08T02:49:01;5.40;96.70
5461;DHT22;2753;49.196;8.286;2024-03-08T02:51:29;5.40;96.80
5461;DHT22;2753;49.196;8.286;2024-03-08T02:53:54;5.30;96.70
5461;DHT22;2753;49.196;8.286;2024-03-08T02:56:20;5.30;96.70
5461;DHT22;2753;49.196;8.286;2024-03-08T02:58:47;5.30;96.80
5461;DHT22;2753;49.196;8.286;2024-03-08T03:01:14;5.30;96.80
5461;DHT22;2753;49.196;8.286;2024-03-08T03:03:44;5.30;96.80
5461;DHT22;2753;49.196;8.286;2024-03-08T03:06:09;5.30;96.70
5461;DHT22;2753;49.196;8.286;2024-03-08T03:08:35;5.20;96.70
5461;DHT22;2753;49.196;8.286;2024-03-08T03:11:00;5.20;96.80
5461;DHT22;2753;49.196;8.286;2024-03-08T03:13:26;5.20;96.80
5461;DHT22;2753;49.196;8.286;2024-03-08T03:15:55;5.10;96.70
5461;DHT22;2753;49.196;8.286;2024-03-08T03:18:23;5.10;96.70
5461;DHT22;2753;49.196;8.286;2024-03-08T03:20:49;5.10;96.70
5461;DHT22;2753;49.196;8.286;2024-03-08T03:23:14;5.10;96.70
5461;DHT22;2753;49.196;8.286;2024-03-08T03:25:46;5.10;96.70
5461;DHT22;2753;49.196;8.286;2024-03-08T03:28:11;5.10;96.70
5461;DHT22;2753;49.196;8.286;2024-03-08T03:30:40;5.10;96.80
5461;DHT22;2753;49.196;8.286;2024-03-08T03:33:05;5.00;96.80
5461;DHT22;2753;49.196;8.286;2024-03-08T03:35:32;5.00;96.80
5461;DHT22;2753;49.196;8.286;2024-03-08T03:37:58;4.90;96.80
5461;DHT22;2753;49.196;8.286;2024-03-08T03:40:28;4.90;96.80
5461;DHT22;2753;49.196;8.286;2024-03-08T03:42:54;4.90;96.80
5461;DHT22;2753;49.196;8.286;2024-03-08T03:45:20;4.90;96.90
5461;DHT22;2753;49.196;8.286;2024-03-08T03:47:46;4.90;96.80
5461;DHT22;2753;49.196;8.286;2024-03-08T03:50:11;4.80;96.80
5461;DHT22;2753;49.196;8.286;2024-03-08T03:52:37;4.80;96.90
5461;DHT22;2753;49.196;8.286;2024-03-08T03:55:04;4.80;96.90
5461;DHT22;2753;49.196;8.286;2024-03-08T03:57:33;4.80;96.80
5461;DHT22;2753;49.196;8.286;2024-03-08T03:59:59;4.70;96.80
5461;DHT22;2753;49.196;8.286;2024-03-08T04:02:25;4.70;96.80
5461;DHT22;2753;49.196;8.286;2024-03-08T04:04:52;4.60;96.90
5461;DHT22;2753;49.196;8.286;2024-03-08T04:07:18;4.60;97.00
5461;DHT22;2753;49.196;8.286;2024-03-08T04:09:43;4.60;97.00
5461;DHT22;2753;49.196;8.286;2024-03-08T04:12:09;4.50;97.00
5461;DHT22;2753;49.196;8.286;2024-03-08T04:14:35;4.50;97.10
5461;DHT22;2753;49.196;8.286;2024-03-08T04:17:02;4.50;97.10
5461;DHT22;2753;49.196;8.286;2024-03-08T04:19:27;4.50;97.10
5461;DHT22;2753;49.196;8.286;2024-03-08T04:21:53;4.50;97.10
5461;DHT22;2753;49.196;8.286;2024-03-08T04:24:19;4.40;97.20
5461;DHT22;2753;49.196;8.286;2024-03-08T04:26:46;4.50;97.10
5461;DHT22;2753;49.196;8.286;2024-03-08T04:29:12;4.50;97.10
5461;DHT22;2753;49.196;8.286;2024-03-08T04:31:40;4.40;97.10
5461;DHT22;2753;49.196;8.286;2024-03-08T04:34:06;4.40;97.20
5461;DHT22;2753;49.196;8.286;2024-03-08T04:36:31;4.40;97.30
5461;DHT22;2753;49.196;8.286;2024-03-08T04:38:59;4.40;97.20
5461;DHT22;2753;49.196;8.286;2024-03-08T04:41:25;4.40;97.20
5461;DHT22;2753;49.196;8.286;2024-03-08T04:43:51;4.40;97.20
5461;DHT22;2753;49.196;8.286;2024-03-08T04:46:17;4.30;97.30
5461;DHT22;2753;49.196;8.286;2024-03-08T04:48:43;4.30;97.20
5461;DHT22;2753;49.196;8.286;2024-03-08T04:51:09;4.30;97.30
5461;DHT22;2753;49.196;8.286;2024-03-08T04:53:35;4.30;97.30
5461;DHT22;2753;49.196;8.286;2024-03-08T04:56:00;4.30;97.30
5461;DHT22;2753;49.196;8.286;2024-03-08T04:58:32;4.30;97.30
5461;DHT22;2753;49.196;8.286;2024-03-08T05:01:00;4.20;97.30
5461;DHT22;2753;49.196;8.286;2024-03-08T05:03:26;4.30;97.30
5461;DHT22;2753;49.196;8.286;2024-03-08T05:05:51;4.20;97.30
5461;DHT22;2753;49.196;8.286;2024-03-08T05:08:17;4.20;97.40
5461;DHT22;2753;49.196;8.286;2024-03-08T05:10:44;4.20;97.40
5461;DHT22;2753;49.196;8.286;2024-03-08T05:13:09;4.10;97.40
5461;DHT22;2753;49.196;8.286;2024-03-08T05:15:35;4.10;97.50
5461;DHT22;2753;49.196;8.286;2024-03-08T05:18:02;4.10;97.50
5461;DHT22;2753;49.196;8.286;2024-03-08T05:20:27;4.10;97.50
5461;DHT22;2753;49.196;8.286;2024-03-08T05:22:56;4.00;97.60
5461;DHT22;2753;49.196;8.286;2024-03-08T05:25:23;4.10;97.60
5461;DHT22;2753;49.196;8.286;2024-03-08T05:27:48;4.00;97.50
5461;DHT22;2753;49.196;8.286;2024-03-08T05:30:14;4.00;97.60
5461;DHT22;2753;49.196;8.286;2024-03-08T05:32:43;4.00;97.70
5461;DHT22;2753;49.196;8.286;2024-03-08T05:35:11;4.00;97.60
5461;DHT22;2753;49.196;8.286;2024-03-08T05:37:38;4.00;97.60
5461;DHT22;2753;49.196;8.286;2024-03-08T05:40:05;3.90;97.70
5461;DHT22;2753;49.196;8.286;2024-03-08T05:42:35;4.00;97.70
5461;DHT22;2753;49.196;8.286;2024-03-08T05:45:04;4.00;97.60
5461;DHT22;2753;49.196;8.286;2024-03-08T05:47:31;4.00;97.50
5461;DHT22;2753;49.196;8.286;2024-03-08T05:49:58;3.90;97.60
5461;DHT22;2753;49.196;8.286;2024-03-08T05:52:24;3.90;97.60
5461;DHT22;2753;49.196;8.286;2024-03-08T05:54:51;3.90;97.70
5461;DHT22;2753;49.196;8.286;2024-03-08T05:57:17;3.90;97.80
5461;DHT22;2753;49.196;8.286;2024-03-08T05:59:43;3.90;97.70
5461;DHT22;2753;49.196;8.286;2024-03-08T06:02:08;3.90;97.80
5461;DHT22;2753;49.196;8.286;2024-03-08T06:04:37;3.90;97.80
5461;DHT22;2753;49.196;8.286;2024-03-08T06:07:06;3.90;97.80
5461;DHT22;2753;49.196;8.286;2024-03-08T06:09:38;3.90;97.80
5461;DHT22;2753;49.196;8.286;2024-03-08T06:12:04;3.90;97.80
5461;DHT22;2753;49.196;8.286;2024-03-08T06:14:32;3.90;97.80
5461;DHT22;2753;49.196;8.286;2024-03-08T06:16:57;4.10;97.70
5461;DHT22;2753;49.196;8.286;2024-03-08T06:19:26;4.20;97.50
5461;DHT22;2753;49.196;8.286;2024-03-08T06:21:52;4.30;97.40
5461;DHT22;2753;49.196;8.286;2024-03-08T06:24:17;4.40;97.30
5461;DHT22;2753;49.196;8.286;2024-03-08T06:26:43;4.60;97.20
5461;DHT22;2753;49.196;8.286;2024-03-08T06:29:09;4.70;97.10
5461;DHT22;2753;49.196;8.286;2024-03-08T06:31:35;4.80;96.90
5461;DHT22;2753;49.196;8.286;2024-03-08T06:34:04;4.90;96.80
5461;DHT22;2753;49.196;8.286;2024-03-08T06:36:33;5.00;96.80
5461;DHT22;2753;49.196;8.286;2024-03-08T06:38:59;5.10;96.70
5461;DHT22;2753;49.196;8.286;2024-03-08T06:41:24;5.00;96.70
5461;DHT22;2753;49.196;8.286;2024-03-08T06:43:50;4.90;96.80
5461;DHT22;2753;49.196;8.286;2024-03-08T06:46:17;5.00;96.80
5461;DHT22;2753;49.196;8.286;2024-03-08T06:48:43;5.20;96.80
5461;DHT22;2753;49.196;8.286;2024-03-08T06:51:10;5.30;96.60
5461;DHT22;2753;49.196;8.286;2024-03-08T06:53:36;5.40;96.50
5461;DHT22;2753;49.196;8.286;2024-03-08T06:56:02;5.40;96.40
5461;DHT22;2753;49.196;8.286;2024-03-08T06:58:28;5.20;96.50
5461;DHT22;2753;49.196;8.286;2024-03-08T07:00:57;5.20;96.80
5461;DHT22;2753;49.196;8.286;2024-03-08T07:03:25;5.20;96.70
5461;DHT22;2753;49.196;8.286;2024-03-08T07:05:52;5.40;96.60
5461;DHT22;2753;49.196;8.286;2024-03-08T07:08:18;5.40;96.60
5461;DHT22;2753;49.196;8.286;2024-03-08T07:10:44;5.40;96.50
5461;DHT22;2753;49.196;8.286;2024-03-08T07:13:10;5.30;96.70
5461;DHT22;2753;49.196;8.286;2024-03-08T07:15:36;5.20;96.70
5461;DHT22;2753;49.196;8.286;2024-03-08T07:18:02;5.30;96.90
5461;DHT22;2753;49.196;8.286;2024-03-08T07:20:28;5.20;96.80
5461;DHT22;2753;49.196;8.286;2024-03-08T07:22:54;5.20;96.80
5461;DHT22;2753;49.196;8.286;2024-03-08T07:25:20;5.20;96.80
5461;DHT22;2753;49.196;8.286;2024-03-08T07:27:53;5.20;96.80
5461;DHT22;2753;49.196;8.286;2024-03-08T07:30:20;5.30;96.80
5461;DHT22;2753;49.196;8.286;2024-03-08T07:33:05;5.20;96.60
5461;DHT22;2753;49.196;8.286;2024-03-08T07:35:32;5.20;97.10
5461;DHT22;2753;49.196;8.286;2024-03-08T07:37:58;5.20;96.80
5461;DHT22;2753;49.196;8.286;2024-03-08T07:40:25;5.30;96.80
5461;DHT22;2753;49.196;8.286;2024-03-08T07:42:51;5.30;96.90
5461;DHT22;2753;49.196;8.286;2024-03-08T07:45:17;5.40;96.70
5461;DHT22;2753;49.196;8.286;2024-03-08T07:47:43;5.40;96.70
5461;DHT22;2753;49.196;8.286;2024-03-08T07:50:09;5.50;96.60
5461;DHT22;2753;49.196;8.286;2024-03-08T07:52:38;5.60;96.60
5461;DHT22;2753;49.196;8.286;2024-03-08T07:55:04;5.70;97.00
5461;DHT22;2753;49.196;8.286;2024-03-08T07:57:30;5.80;96.50
5461;DHT22;2753;49.196;8.286;2024-03-08T07:59:57;5.90;96.50
5461;DHT22;2753;49.196;8.286;2024-03-08T08:02:23;5.90;96.40
5461;DHT22;2753;49.196;8.286;2024-03-08T08:04:49;5.90;96.20
5461;DHT22;2753;49.196;8.286;2024-03-08T08:07:14;6.00;96.00
5461;DHT22;2753;49.196;8.286;2024-03-08T08:09:46;6.00;96.00
5461;DHT22;2753;49.196;8.286;2024-03-08T08:12:12;6.00;95.80
5461;DHT22;2753;49.196;8.286;2024-03-08T08:14:38;6.20;95.90
5461;DHT22;2753;49.196;8.286;2024-03-08T08:17:04;6.30;95.80
5461;DHT22;2753;49.196;8.286;2024-03-08T08:19:30;6.40;95.80
5461;DHT22;2753;49.196;8.286;2024-03-08T08:21:57;6.40;95.60
5461;DHT22;2753;49.196;8.286;2024-03-08T08:24:23;6.50;95.40
5461;DHT22;2753;49.196;8.286;2024-03-08T08:26:49;6.60;95.40
5461;DHT22;2753;49.196;8.286;2024-03-08T08:29:16;6.60;95.50
5461;DHT22;2753;49.196;8.286;2024-03-08T08:31:42;6.60;95.50
5461;DHT22;2753;49.196;8.286;2024-03-08T08:34:09;6.60;95.30
5461;DHT22;2753;49.196;8.286;2024-03-08T08:36:37;6.60;95.20
5461;DHT22;2753;49.196;8.286;2024-03-08T08:39:04;6.70;95.30
5461;DHT22;2753;49.196;8.286;2024-03-08T08:41:30;6.70;95.10
5461;DHT22;2753;49.196;8.286;2024-03-08T08:43:57;6.80;95.20
5461;DHT22;2753;49.196;8.286;2024-03-08T08:46:22;6.80;95.20
5461;DHT22;2753;49.196;8.286;2024-03-08T08:48:48;6.80;94.90
5461;DHT22;2753;49.196;8.286;2024-03-08T08:51:14;6.80;95.20
5461;DHT22;2753;49.196;8.286;2024-03-08T08:53:41;6.70;95.30
5461;DHT22;2753;49.196;8.286;2024-03-08T08:56:12;6.70;95.10
5461;DHT22;2753;49.196;8.286;2024-03-08T08:58:39;6.60;95.10
5461;DHT22;2753;49.196;8.286;2024-03-08T09:01:06;6.60;95.40
5461;DHT22;2753;49.196;8.286;2024-03-08T09:03:33;6.60;95.50
5461;DHT22;2753;49.196;8.286;2024-03-08T09:06:00;6.50;95.20
5461;DHT22;2753;49.196;8.286;2024-03-08T09:08:28;6.50;95.40
5461;DHT22;2753;49.196;8.286;2024-03-08T09:10:54;6.50;95.40
5461;DHT22;2753;49.196;8.286;2024-03-08T09:13:19;6.50;95.60
5461;DHT22;2753;49.196;8.286;2024-03-08T09:15:45;6.50;95.50
5461;DHT22;2753;49.196;8.286;2024-03-08T09:18:11;6.50;95.70
5461;DHT22;2753;49.196;8.286;2024-03-08T09:20:36;6.50;95.70
5461;DHT22;2753;49.196;8.286;2024-03-08T09:23:03;6.50;95.70
5461;DHT22;2753;49.196;8.286;2024-03-08T09:25:29;6.40;95.40
5461;DHT22;2753;49.196;8.286;2024-03-08T09:27:55;6.40;95.40
5461;DHT22;2753;49.196;8.286;2024-03-08T09:30:21;6.30;95.60
5461;DHT22;2753;49.196;8.286;2024-03-08T09:32:47;6.20;96.00
5461;DHT22;2753;49.196;8.286;2024-03-08T09:35:13;6.20;95.80
5461;DHT22;2753;49.196;8.286;2024-03-08T09:37:38;6.20;95.80
5461;DHT22;2753;49.196;8.286;2024-03-08T09:40:05;6.20;95.80
5461;DHT22;2753;49.196;8.286;2024-03-08T09:42:35;6.10;95.90
5461;DHT22;2753;49.196;8.286;2024-03-08T09:45:09;6.20;95.90
5461;DHT22;2753;49.196;8.286;2024-03-08T09:47:41;6.20;95.90
5461;DHT22;2753;49.196;8.286;2024-03-08T09:50:08;6.10;95.80
5461;DHT22;2753;49.196;8.286;2024-03-08T09:52:40;6.20;95.80
5461;DHT22;2753;49.196;8.286;2024-03-08T09:55:07;6.20;95.90
5461;DHT22;2753;49.196;8.286;2024-03-08T09:57:33;6.20;95.80
5461;DHT22;2753;49.196;8.286;2024-03-08T10:00:01;6.20;95.90
5461;DHT22;2753;49.196;8.286;2024-03-08T10:02:29;6.10;96.10
5461;DHT22;2753;49.196;8.286;2024-03-08T10:04:57;6.20;96.10
5461;DHT22;2753;49.196;8.286;2024-03-08T10:07:23;6.20;96.00
5461;DHT22;2753;49.196;8.286;2024-03-08T10:09:51;6.20;96.00
5461;DHT22;2753;49.196;8.286;2024-03-08T10:12:17;6.20;96.10
5461;DHT22;2753;49.196;8.286;2024-03-08T10:14:45;6.20;95.90
5461;DHT22;2753;49.196;8.286;2024-03-08T10:17:12;6.20;95.90
5461;DHT22;2753;49.196;8.286;2024-03-08T10:19:38;6.20;96.00
5461;DHT22;2753;49.196;8.286;2024-03-08T10:22:04;6.30;95.90
5461;DHT22;2753;49.196;8.286;2024-03-08T10:24:30;6.30;95.90
5461;DHT22;2753;49.196;8.286;2024-03-08T10:27:02;6.30;95.90
5461;DHT22;2753;49.196;8.286;2024-03-08T10:29:31;6.30;96.00
5461;DHT22;2753;49.196;8.286;2024-03-08T10:31:56;6.40;96.00
5461;DHT22;2753;49.196;8.286;2024-03-08T10:34:23;6.40;95.90
5461;DHT22;2753;49.196;8.286;2024-03-08T10:36:50;6.50;95.90
5461;DHT22;2753;49.196;8.286;2024-03-08T10:39:24;6.40;95.70
5461;DHT22;2753;49.196;8.286;2024-03-08T10:42:10;6.40;95.70
5461;DHT22;2753;49.196;8.286;2024-03-08T10:44:53;6.50;95.80
5461;DHT22;2753;49.196;8.286;2024-03-08T10:47:26;6.50;95.80
5461;DHT22;2753;49.196;8.286;2024-03-08T10:50:18;6.50;95.80
5461;DHT22;2753;49.196;8.286;2024-03-08T10:52:51;6.60;95.80
5461;DHT22;2753;49.196;8.286;2024-03-08T10:55:18;6.60;95.70
5461;DHT22;2753;49.196;8.286;2024-03-08T10:57:46;6.60;95.60
5461;DHT22;2753;49.196;8.286;2024-03-08T11:00:13;6.60;95.70
5461;DHT22;2753;49.196;8.286;2024-03-08T11:02:44;6.60;95.70
5461;DHT22;2753;49.196;8.286;2024-03-08T11:05:32;6.70;95.80
5461;DHT22;2753;49.196;8.286;2024-03-08T11:08:02;6.70;95.70
5461;DHT22;2753;49.196;8.286;2024-03-08T11:10:29;6.70;95.90
5461;DHT22;2753;49.196;8.286;2024-03-08T11:12:55;6.70;96.00
5461;DHT22;2753;49.196;8.286;2024-03-08T11:15:21;6.70;95.80
5461;DHT22;2753;49.196;8.286;2024-03-08T11:17:50;6.80;95.90
5461;DHT22;2753;49.196;8.286;2024-03-08T11:20:20;6.90;95.90
5461;DHT22;2753;49.196;8.286;2024-03-08T11:22:55;7.00;95.60
5461;DHT22;2753;49.196;8.286;2024-03-08T11:25:38;6.90;95.60
5461;DHT22;2753;49.196;8.286;2024-03-08T11:33:28;7.10;95.60
5461;DHT22;2753;49.196;8.286;2024-03-08T11:36:13;7.20;95.60
5461;DHT22;2753;49.196;8.286;2024-03-08T11:38:45;7.20;95.60
5461;DHT22;2753;49.196;8.286;2024-03-08T11:41:18;7.30;95.60
5461;DHT22;2753;49.196;8.286;2024-03-08T11:43:45;7.50;95.30
5461;DHT22;2753;49.196;8.286;2024-03-08T11:46:12;7.80;95.10
5461;DHT22;2753;49.196;8.286;2024-03-08T11:48:41;7.80;95.00
5461;DHT22;2753;49.196;8.286;2024-03-08T11:51:08;8.20;94.70
5461;DHT22;2753;49.196;8.286;2024-03-08T11:53:35;7.90;94.50
5461;DHT22;2753;49.196;8.286;2024-03-08T11:56:09;7.80;94.70
5461;DHT22;2753;49.196;8.286;2024-03-08T11:58:35;7.80;94.60
5461;DHT22;2753;49.196;8.286;2024-03-08T12:01:08;7.90;94.90
5461;DHT22;2753;49.196;8.286;2024-03-08T12:03:42;8.00;94.80
5461;DHT22;2753;49.196;8.286;2024-03-08T12:06:09;7.90;94.50
5461;DHT22;2753;49.196;8.286;2024-03-08T12:08:36;7.80;94.60
5461;DHT22;2753;49.196;8.286;2024-03-08T12:11:04;7.80;94.80
5461;DHT22;2753;49.196;8.286;2024-03-08T12:13:32;8.20;94.80
5461;DHT22;2753;49.196;8.286;2024-03-08T12:15:58;8.30;94.70
5461;DHT22;2753;49.196;8.286;2024-03-08T12:18:28;8.20;94.30
5461;DHT22;2753;49.196;8.286;2024-03-08T12:21:15;8.10;94.50
5461;DHT22;2753;49.196;8.286;2024-03-08T12:23:47;8.20;93.80
5461;DHT22;2753;49.196;8.286;2024-03-08T12:26:24;8.30;94.10
5461;DHT22;2753;49.196;8.286;2024-03-08T12:28:51;8.50;93.90
5461;DHT22;2753;49.196;8.286;2024-03-08T12:31:18;8.60;93.70
5461;DHT22;2753;49.196;8.286;2024-03-08T12:33:49;8.90;93.80
5461;DHT22;2753;49.196;8.286;2024-03-08T12:36:17;8.90;93.60
5461;DHT22;2753;49.196;8.286;2024-03-08T12:38:46;9.10;94.10
5461;DHT22;2753;49.196;8.286;2024-03-08T12:41:15;9.90;93.60
5461;DHT22;2753;49.196;8.286;2024-03-08T12:43:43;9.70;92.70
5461;DHT22;2753;49.196;8.286;2024-03-08T12:46:14;9.70;92.50
5461;DHT22;2753;49.196;8.286;2024-03-08T12:48:40;9.60;92.70
5461;DHT22;2753;49.196;8.286;2024-03-08T12:51:09;9.70;92.60
5461;DHT22;2753;49.196;8.286;2024-03-08T12:53:35;9.80;92.20
5461;DHT22;2753;49.196;8.286;2024-03-08T12:56:01;9.90;92.10
5461;DHT22;2753;49.196;8.286;2024-03-08T12:58:29;9.80;92.10
5461;DHT22;2753;49.196;8.286;2024-03-08T13:00:55;10.20;91.50
5461;DHT22;2753;49.196;8.286;2024-03-08T13:03:20;10.60;92.20
5461;DHT22;2753;49.196;8.286;2024-03-08T13:05:48;10.30;91.20
5461;DHT22;2753;49.196;8.286;2024-03-08T13:08:15;10.60;91.50
5461;DHT22;2753;49.196;8.286;2024-03-08T13:10:42;10.70;91.20
5461;DHT22;2753;49.196;8.286;2024-03-08T13:13:09;10.90;90.70
5461;DHT22;2753;49.196;8.286;2024-03-08T13:15:35;10.90;91.10
5461;DHT22;2753;49.196;8.286;2024-03-08T13:18:01;10.50;91.10
5461;DHT22;2753;49.196;8.286;2024-03-08T13:20:27;10.70;91.10
5461;DHT22;2753;49.196;8.286;2024-03-08T13:22:53;10.60;91.40
5461;DHT22;2753;49.196;8.286;2024-03-08T13:25:19;10.70;90.70
5461;DHT22;2753;49.196;8.286;2024-03-08T13:27:45;10.80;91.70
5461;DHT22;2753;49.196;8.286;2024-03-08T13:30:13;10.80;90.90
5461;DHT22;2753;49.196;8.286;2024-03-08T13:32:42;10.90;91.00
5461;DHT22;2753;49.196;8.286;2024-03-08T13:35:11;10.50;91.30
5461;DHT22;2753;49.196;8.286;2024-03-08T13:37:42;10.60;91.80
5461;DHT22;2753;49.196;8.286;2024-03-08T13:40:09;11.00;91.50
5461;DHT22;2753;49.196;8.286;2024-03-08T13:42:42;11.00;91.00
5461;DHT22;2753;49.196;8.286;2024-03-08T13:45:11;11.20;90.90
5461;DHT22;2753;49.196;8.286;2024-03-08T13:47:41;11.40;90.80
5461;DHT22;2753;49.196;8.286;2024-03-08T13:50:07;11.80;90.40
5461;DHT22;2753;49.196;8.286;2024-03-08T13:52:37;11.80;90.00
5461;DHT22;2753;49.196;8.286;2024-03-08T13:55:04;11.60;90.10
5461;DHT22;2753;49.196;8.286;2024-03-08T13:57:31;11.80;91.10
5461;DHT22;2753;49.196;8.286;2024-03-08T13:59:57;11.90;90.10
5461;DHT22;2753;49.196;8.286;2024-03-08T14:02:23;12.00;89.90
5461;DHT22;2753;49.196;8.286;2024-03-08T14:04:53;12.10;90.30
5461;DHT22;2753;49.196;8.286;2024-03-08T14:07:20;12.20;89.70
5461;DHT22;2753;49.196;8.286;2024-03-08T14:09:46;12.30;89.80
5461;DHT22;2753;49.196;8.286;2024-03-08T14:12:12;12.60;89.70
5461;DHT22;2753;49.196;8.286;2024-03-08T14:14:40;12.50;90.00
5461;DHT22;2753;49.196;8.286;2024-03-08T14:17:06;12.60;89.40
5461;DHT22;2753;49.196;8.286;2024-03-08T14:19:32;12.70;90.00
5461;DHT22;2753;49.196;8.286;2024-03-08T14:22:01;13.00;87.90
5461;DHT22;2753;49.196;8.286;2024-03-08T14:24:32;12.90;88.10
5461;DHT22;2753;49.196;8.286;2024-03-08T14:27:01;12.90;88.60
5461;DHT22;2753;49.196;8.286;2024-03-08T14:29:31;13.10;89.50
5461;DHT22;2753;49.196;8.286;2024-03-08T14:31:58;12.70;87.70
5461;DHT22;2753;49.196;8.286;2024-03-08T14:34:27;12.40;88.30
5461;DHT22;2753;49.196;8.286;2024-03-08T14:36:55;12.40;88.90
5461;DHT22;2753;49.196;8.286;2024-03-08T14:39:23;12.30;88.00
5461;DHT22;2753;49.196;8.286;2024-03-08T14:41:55;12.20;88.90
5461;DHT22;2753;49.196;8.286;2024-03-08T14:44:22;12.10;89.20
5461;DHT22;2753;49.196;8.286;2024-03-08T14:46:55;12.80;89.00
5461;DHT22;2753;49.196;8.286;2024-03-08T14:49:22;12.80;87.10
5461;DHT22;2753;49.196;8.286;2024-03-08T14:51:48;12.60;87.80
5461;DHT22;2753;49.196;8.286;2024-03-08T14:54:13;12.80;87.50
5461;DHT22;2753;49.196;8.286;2024-03-08T14:56:39;13.20;87.80
5461;DHT22;2753;49.196;8.286;2024-03-08T14:59:08;13.10;86.20
5461;DHT22;2753;49.196;8.286;2024-03-08T15:01:37;12.70;87.60
5461;DHT22;2753;49.196;8.286;2024-03-08T15:04:03;12.60;87.60
5461;DHT22;2753;49.196;8.286;2024-03-08T15:06:42;12.90;87.50
5461;DHT22;2753;49.196;8.286;2024-03-08T15:09:08;12.90;86.90
5461;DHT22;2753;49.196;8.286;2024-03-08T15:11:45;12.80;87.80
5461;DHT22;2753;49.196;8.286;2024-03-08T15:14:11;12.50;87.40
5461;DHT22;2753;49.196;8.286;2024-03-08T15:16:37;12.80;87.80
5461;DHT22;2753;49.196;8.286;2024-03-08T15:19:05;12.70;86.70
5461;DHT22;2753;49.196;8.286;2024-03-08T15:21:31;12.70;87.50
5461;DHT22;2753;49.196;8.286;2024-03-08T15:23:56;12.80;87.80
5461;DHT22;2753;49.196;8.286;2024-03-08T15:26:22;12.80;86.70
5461;DHT22;2753;49.196;8.286;2024-03-08T15:28:48;12.80;87.20
5461;DHT22;2753;49.196;8.286;2024-03-08T15:31:17;12.60;87.40
5461;DHT22;2753;49.196;8.286;2024-03-08T15:33:44;12.40;89.00
5461;DHT22;2753;49.196;8.286;2024-03-08T15:36:11;12.50;89.00
5461;DHT22;2753;49.196;8.286;2024-03-08T15:38:39;12.60;88.10
5461;DHT22;2753;49.196;8.286;2024-03-08T15:41:05;12.70;88.20
5461;DHT22;2753;49.196;8.286;2024-03-08T15:43:39;12.80;88.90
5461;DHT22;2753;49.196;8.286;2024-03-08T15:46:06;13.00;89.20
5461;DHT22;2753;49.196;8.286;2024-03-08T15:48:32;12.70;88.30
5461;DHT22;2753;49.196;8.286;2024-03-08T15:50:59;12.70;88.40
5461;DHT22;2753;49.196;8.286;2024-03-08T15:53:28;12.70;89.00
5461;DHT22;2753;49.196;8.286;2024-03-08T15:55:58;12.30;88.30
5461;DHT22;2753;49.196;8.286;2024-03-08T15:58:25;12.40;89.20
5461;DHT22;2753;49.196;8.286;2024-03-08T16:00:51;12.30;89.20
5461;DHT22;2753;49.196;8.286;2024-03-08T16:03:18;12.40;89.70
5461;DHT22;2753;49.196;8.286;2024-03-08T16:05:44;11.80;89.70
5461;DHT22;2753;49.196;8.286;2024-03-08T16:08:17;11.80;90.10
5461;DHT22;2753;49.196;8.286;2024-03-08T16:13:18;11.70;90.00
5461;DHT22;2753;49.196;8.286;2024-03-08T16:15:46;11.70;90.30
5461;DHT22;2753;49.196;8.286;2024-03-08T16:18:13;11.70;90.30
5461;DHT22;2753;49.196;8.286;2024-03-08T16:20:39;11.80;90.50
5461;DHT22;2753;49.196;8.286;2024-03-08T16:23:06;11.80;90.50
5461;DHT22;2753;49.196;8.286;2024-03-08T16:25:34;11.70;90.50
5461;DHT22;2753;49.196;8.286;2024-03-08T16:28:02;11.70;90.30